Latest Weather Observations for Spring Bay

IDT60801

Issued at 5:51 pm EST Saturday 22 September 2018 (issued every 10 minutes, with the page automatically refreshed every 10 minutes)

About weather observations | Map of weather stations | Latest weather observations for TAS | Other Formats
Station Details ID: 092133 Name: SPRING BAY NTC AWS Lat: -42.55 Lon: 147.93 Height: 0.0 m
Data from the previous 72 hours. | See also: Recent months for locations in Tasmania
Date/Time
EST
Temp
°C
App
Temp
°C
Dew
Point
°C
Rel
Hum
%
Delta-T
°C
Wind Press
QNH
hPa
Press
MSL
hPa
Rain since
9am
mm
Dir  Spd
km/h
Gust
km/h
Spd
kts
Gust
kts
22/05:30pm 13.7 - - - - - - - - - 1018.3 1018.3 -
22/05:00pm 16.1 - - - - - - - - - 1017.5 1017.5 -
22/04:30pm 16.2 - - - - - - - - - 1017.0 1017.0 -
22/04:00pm 16.5 - - - - - - - - - 1016.6 1016.6 -
22/03:30pm 17.2 - - - - - - - - - 1016.5 1016.5 -
22/03:00pm 17.4 - - - - - - - - - 1016.3 1016.3 -
22/02:30pm 17.7 - - - - - - - - - 1015.9 1015.9 -
22/02:00pm 17.8 - - - - - - - - - 1016.3 1016.3 -
22/01:30pm 17.2 - - - - - - - - - 1016.5 1016.5 -
22/01:00pm 16.6 - - - - - - - - - 1017.1 1017.1 -
22/12:30pm 16.2 - - - - - - - - - 1017.7 1017.7 -
22/12:00pm 15.2 - - - - - - - - - 1017.9 1017.9 -
22/11:30am 14.8 - - - - - - - - - 1018.3 1018.3 -
22/11:00am 14.0 - - - - - - - - - 1018.5 1018.5 -
22/10:30am 13.6 - - - - - - - - - 1018.7 1018.7 -
22/10:00am 12.8 - - - - - - - - - 1019.0 1019.0 -
22/09:30am 12.4 - - - - - - - - - 1019.0 1019.0 -
22/09:00am 11.6 - - - - - - - - - 1019.2 1019.2 -
22/08:30am 10.9 - - - - - - - - - 1019.2 1019.2 -
22/08:00am 11.1 - - - - - - - - - 1018.8 1018.8 -
22/07:30am 10.5 - - - - - - - - - 1018.8 1018.8 -
22/07:00am 10.1 - - - - - - - - - 1018.7 1018.7 -
22/06:30am 10.3 - - - - - - - - - 1018.5 1018.5 -
22/06:00am 10.1 - - - - - - - - - 1018.3 1018.3 -
22/05:30am 10.0 - - - - - - - - - 1017.9 1017.9 -
22/05:00am 10.3 - - - - - - - - - 1017.6 1017.6 -
22/04:30am 10.4 - - - - - - - - - 1017.6 1017.6 -
22/04:00am 10.7 - - - - - - - - - 1017.6 1017.6 -
22/03:30am 10.9 - - - - - - - - - 1017.6 1017.6 -
22/03:00am 11.0 - - - - - - - - - 1017.6 1017.6 -
22/02:30am 11.5 - - - - - - - - - 1018.0 1018.0 -
22/02:00am 11.8 - - - - - - - - - 1018.2 1018.2 -
22/01:30am 11.7 - - - - - - - - - 1018.4 1018.4 -
22/01:00am 12.1 - - - - - - - - - 1018.7 1018.7 -
22/12:30am 12.2 - - - - - - - - - 1018.6 1018.6 -
22/12:00am 12.3 - - - - - - - - - 1018.5 1018.5 -
 
Date/Time
EST
Temp
°C
App
Temp
°C
Dew
Point
°C
Rel
Hum
%
Delta-T
°C
Wind Press
QNH
hPa
Press
MSL
hPa
Rain since
9am
mm
Dir  Spd
km/h
Gust
km/h
Spd
kts
Gust
kts
21/11:30pm 12.4 - - - - - - - - - 1018.5 1018.5 -
21/11:00pm 12.7 - - - - - - - - - 1018.8 1018.8 -
21/10:30pm 13.1 - - - - - - - - - 1019.0 1019.0 -
21/10:00pm 13.3 - - - - - - - - - 1019.2 1019.2 -
21/09:30pm 14.0 - - - - - - - - - 1019.3 1019.3 -
21/09:00pm 13.6 - - - - - - - - - 1019.3 1019.3 -
21/08:30pm 15.2 - - - - - - - - - 1019.2 1019.2 -
21/08:00pm 15.3 - - - - - - - - - 1019.1 1019.1 -
21/07:30pm 15.1 - - - - - - - - - 1018.8 1018.8 -
21/07:00pm 15.2 - - - - - - - - - 1018.4 1018.4 -
21/06:30pm 16.0 - - - - - - - - - 1018.0 1018.0 -
21/06:00pm 16.5 - - - - - - - - - 1017.6 1017.6 -
21/05:30pm 17.3 - - - - - - - - - 1017.2 1017.2 -
21/05:00pm 16.7 - - - - - - - - - 1016.7 1016.7 -
21/04:30pm 18.1 - - - - - - - - - 1016.4 1016.4 -
21/04:00pm 17.9 - - - - - - - - - 1016.3 1016.3 -
21/03:30pm 19.0 - - - - - - - - - 1016.1 1016.1 -
21/03:00pm 18.0 - - - - - - - - - 1016.2 1016.2 -
21/02:30pm 18.2 - - - - - - - - - 1016.5 1016.5 -
21/02:00pm 17.1 - - - - - - - - - 1016.8 1016.8 -
21/01:30pm 17.3 - - - - - - - - - 1017.0 1017.0 -
21/01:00pm 16.6 - - - - - - - - - 1017.4 1017.4 -
21/12:30pm 16.7 - - - - - - - - - 1017.7 1017.7 -
21/12:00pm 15.9 - - - - - - - - - 1017.9 1017.9 -
21/11:30am 16.2 - - - - - - - - - 1018.2 1018.2 -
21/11:00am 15.2 - - - - - - - - - 1018.3 1018.3 -
21/10:30am 14.8 - - - - - - - - - 1018.5 1018.5 -
21/10:00am 14.4 - - - - - - - - - 1018.8 1018.8 -
21/09:30am 14.0 - - - - - - - - - 1018.9 1018.9 -
21/09:00am 12.9 - - - - - - - - - 1019.0 1019.0 -
21/08:30am 12.0 - - - - - - - - - 1019.2 1019.2 -
21/08:00am 12.6 - - - - - - - - - 1019.4 1019.4 -
21/07:30am 11.6 - - - - - - - - - 1019.1 1019.1 -
21/07:00am 9.7 - - - - - - - - - 1018.9 1018.9 -
21/06:30am 8.7 - - - - - - - - - 1018.5 1018.5 -
21/06:00am 7.8 - - - - - - - - - 1018.3 1018.3 -
21/05:30am 8.2 - - - - - - - - - 1018.1 1018.1 -
21/05:00am 8.4 - - - - - - - - - 1017.9 1017.9 -
21/04:30am 8.0 - - - - - - - - - 1017.8 1017.8 -
21/04:00am 8.2 - - - - - - - - - 1017.5 1017.5 -
21/03:30am 8.1 - - - - - - - - - 1017.2 1017.2 -
21/03:00am 8.5 - - - - - - - - - 1017.3 1017.3 -
21/02:30am 9.0 - - - - - - - - - 1017.4 1017.4 -
21/02:00am 9.1 - - - - - - - - - 1017.6 1017.6 -
21/01:30am 9.4 - - - - - - - - - 1017.8 1017.8 -
21/01:00am 9.4 - - - - - - - - - 1017.6 1017.6 -
21/12:30am 10.6 - - - - - - - - - 1017.5 1017.5 -
21/12:00am 10.9 - - - - - - - - - 1017.2 1017.2 -
 
Date/Time
EST
Temp
°C
App
Temp
°C
Dew
Point
°C
Rel
Hum
%
Delta-T
°C
Wind Press
QNH
hPa
Press
MSL
hPa
Rain since
9am
mm
Dir  Spd
km/h
Gust
km/h
Spd
kts
Gust
kts
20/11:30pm 11.4 - - - - - - - - - 1017.2 1017.2 -
20/11:00pm 12.5 - - - - - - - - - 1017.2 1017.2 -
20/10:30pm 11.8 - - - - - - - - - 1017.3 1017.3 -
20/10:00pm 11.4 - - - - - - - - - 1017.1 1017.1 -
20/09:30pm 11.8 - - - - - - - - - 1016.7 1016.7 -
20/09:00pm 12.9 - - - - - - - - - 1016.6 1016.6 -
20/08:30pm 13.3 - - - - - - - - - 1016.4 1016.4 -
20/08:00pm 13.4 - - - - - - - - - 1016.1 1016.1 -
20/07:30pm 13.4 - - - - - - - - - 1015.7 1015.7 -
20/07:00pm 13.8 - - - - - - - - - 1015.4 1015.4 -
20/06:30pm 14.4 - - - - - - - - - 1015.0 1015.0 -
20/06:00pm 14.7 - - - - - - - - - 1014.7 1014.7 -
20/05:30pm 15.2 - - - - - - - - - 1014.1 1014.1 -
20/05:00pm 15.2 - - - - - - - - - 1013.7 1013.7 -
20/04:30pm 15.6 - - - - - - - - - 1013.3 1013.3 -
20/04:00pm 15.4 - - - - - - - - - 1013.1 1013.1 -
20/03:30pm 15.7 - - - - - - - - - 1012.9 1012.9 -
20/03:00pm 15.5 - - - - - - - - - 1013.0 1013.0 -
20/02:30pm 15.3 - - - - - - - - - 1013.0 1013.0 -
20/02:00pm 15.2 - - - - - - - - - 1013.0 1013.0 -
20/01:30pm 14.9 - - - - - - - - - 1013.2 1013.2 -
20/01:00pm 14.4 - - - - - - - - - 1013.3 1013.3 -
20/12:30pm 14.3 - - - - - - - - - 1013.5 1013.5 -
20/12:00pm 13.9 - - - - - - - - - 1013.6 1013.6 -
20/11:30am 13.5 - - - - - - - - - 1013.3 1013.3 -
20/11:00am 13.4 - - - - - - - - - 1013.5 1013.5 -
20/10:30am 12.5 - - - - - - - - - 1013.9 1013.9 -
20/10:00am 11.9 - - - - - - - - - 1013.9 1013.9 -
20/09:30am 11.8 - - - - - - - - - 1014.2 1014.2 -
20/09:00am 9.9 - - - - - - - - - 1014.4 1014.4 -
20/08:30am 9.1 - - - - - - - - - 1014.2 1014.2 -
20/08:00am 7.2 - - - - - - - - - 1014.0 1014.0 -
20/07:30am 6.8 - - - - - - - - - 1013.6 1013.6 -
20/07:00am 4.5 - - - - - - - - - 1013.3 1013.3 -
20/06:30am 4.3 - - - - - - - - - 1013.4 1013.4 -
20/06:00am 3.8 - - - - - - - - - 1013.2 1013.2 -
20/05:30am 2.9 - - - - - - - - - 1012.9 1012.9 -
20/05:00am 3.7 - - - - - - - - - 1012.9 1012.9 -
20/04:30am 4.2 - - - - - - - - - 1013.1 1013.1 -
20/04:00am 4.7 - - - - - - - - - 1013.1 1013.1 -
20/03:30am 4.8 - - - - - - - - - 1013.0 1013.0 -
20/03:00am 4.6 - - - - - - - - - 1012.9 1012.9 -
20/02:30am 4.8 - - - - - - - - - 1012.9 1012.9 -
20/02:00am 4.9 - - - - - - - - - 1013.0 1013.0 -
20/01:30am 4.9 - - - - - - - - - 1013.2 1013.2 -
20/01:00am 5.3 - - - - - - - - - 1013.3 1013.3 -
20/12:30am 5.3 - - - - - - - - - 1013.3 1013.3 -
20/12:00am 5.6 - - - - - - - - - 1013.3 1013.3 -
 
Date/Time
EST
Temp
°C
App
Temp
°C
Dew
Point
°C
Rel
Hum
%
Delta-T
°C
Wind Press
QNH
hPa
Press
MSL
hPa
Rain since
9am
mm
Dir  Spd
km/h
Gust
km/h
Spd
kts
Gust
kts
19/11:30pm 6.4 - - - - - - - - - 1013.3 1013.3 -
19/11:00pm 6.8 - - - - - - - - - 1013.3 1013.3 -
19/10:30pm 7.0 - - - - - - - - - 1013.2 1013.2 -
19/10:00pm 7.7 - - - - - - - - - 1013.1 1013.1 -
19/09:30pm 7.7 - - - - - - - - - 1012.8 1012.8 -
19/09:00pm 8.2 - - - - - - - - - 1012.5 1012.5 -
19/08:30pm 8.0 - - - - - - - - - 1012.0 1012.0 -
19/08:00pm 8.2 - - - - - - - - - 1011.7 1011.7 -
19/07:30pm 8.7 - - - - - - - - - 1011.3 1011.3 -
19/07:00pm 9.1 - - - - - - - - - 1010.7 1010.7 -
19/06:30pm 9.4 - - - - - - - - - 1010.3 1010.3 -
19/06:00pm 9.9 - - - - - - - - - 1009.9 1009.9 -

Other Formats:

Comma delimited format used in spreadsheet applications
http://www.bom.gov.au/fwo/IDT60801/IDT60801.95987.axf

JavaScript Object Notation format (JSON) in row-major order
http://www.bom.gov.au/fwo/IDT60801/IDT60801.95987.json